Time;durP1;ratioP1;P1;durP2;ratioP2;P2;SDS_P1;SDS_P2;PMS_P1;PMS_P2;Temp;Humidity;BMP_temperature;BMP_pressure;BME280_temperature;BME280_humidity;BME280_pressure;Samples;Min_cycle;Max_cycle;Signal;HPM_P1;HPM_P2
2021/09/02 00:03:35;;;;;;;44.63;40.97;;;;;;;16.74;100.00;102995.75;1971925;73;33007;-76
2021/09/02 00:08:59;;;;;;;45.87;41.83;;;;;;;16.66;100.00;102989.27;1971945;73;33035;-76
2021/09/02 00:14:24;;;;;;;46.93;43.17;;;;;;;16.69;100.00;102985.34;1972076;73;30983;-76
2021/09/02 00:19:49;;;;;;;46.10;42.80;;;;;;;16.81;100.00;102982.32;1972121;72;32976;-76
2021/09/02 00:25:14;;;;;;;46.83;43.10;;;;;;;16.71;100.00;102990.14;1971928;73;33041;-76
2021/09/02 00:30:39;;;;;;;46.93;43.33;;;;;;;16.60;100.00;102990.38;1971912;72;33020;-76
2021/09/02 00:36:04;;;;;;;47.03;43.17;;;;;;;16.63;100.00;102990.67;1972177;73;33447;-76
2021/09/02 00:41:29;;;;;;;46.77;43.20;;;;;;;16.61;100.00;102986.43;1971926;73;33010;-71
2021/09/02 00:46:54;;;;;;;48.57;44.67;;;;;;;16.60;100.00;102985.58;1972199;73;33014;-76
2021/09/02 00:52:20;;;;;;;47.30;43.50;;;;;;;16.57;100.00;102982.45;1971954;73;32959;-76
2021/09/02 00:57:46;;;;;;;46.97;43.03;;;;;;;16.55;100.00;102984.15;1972178;73;33556;-76
2021/09/02 01:03:12;;;;;;;48.17;44.30;;;;;;;16.47;100.00;102979.62;1972142;73;32956;-77
2021/09/02 01:08:40;;;;;;;47.30;43.80;;;;;;;16.49;100.00;102981.58;1971923;73;32912;-76
2021/09/02 01:14:05;;;;;;;49.20;45.47;;;;;;;16.49;100.00;102969.80;1971955;73;31076;-76
2021/09/02 01:19:30;;;;;;;50.07;45.93;;;;;;;16.50;100.00;102969.24;1971960;73;32915;-71
2021/09/02 01:25:17;;;;;;;47.80;44.00;;;;;;;16.54;100.00;102976.84;2016194;71;32892;-75
2021/09/02 01:30:44;;;;;;;47.10;43.17;;;;;;;16.47;100.00;102969.24;1971931;73;33020;-76
2021/09/02 01:36:10;;;;;;;47.43;43.60;;;;;;;16.42;100.00;102955.74;1971983;73;33045;-76
2021/09/02 01:41:35;;;;;;;49.40;45.27;;;;;;;16.45;100.00;102953.78;1971875;73;32929;-76
2021/09/02 01:47:00;;;;;;;49.47;45.57;;;;;;;16.45;100.00;102945.36;1971914;73;32959;-71
2021/09/02 01:52:24;;;;;;;50.03;46.07;;;;;;;16.40;100.00;102946.19;1971916;73;32902;-76
2021/09/02 01:57:52;;;;;;;49.30;45.20;;;;;;;16.25;100.00;102932.95;1972157;73;33448;-71
2021/09/02 02:03:18;;;;;;;49.73;45.87;;;;;;;16.31;100.00;102939.41;1971867;73;33068;-74
2021/09/02 02:08:43;;;;;;;50.00;45.90;;;;;;;16.26;100.00;102937.42;1971937;73;32987;-76
2021/09/02 02:14:07;;;;;;;50.17;45.83;;;;;;;16.19;100.00;102935.42;1971828;73;32896;-76
2021/09/02 02:19:32;;;;;;;49.17;45.03;;;;;;;16.39;100.00;102930.47;1972127;72;32911;-76
2021/09/02 02:24:56;;;;;;;49.47;45.53;;;;;;;16.30;100.00;102924.53;1971871;73;32958;-77
2021/09/02 02:30:21;;;;;;;50.20;45.90;;;;;;;16.30;100.00;102913.31;1971844;73;32899;-75
2021/09/02 02:35:46;;;;;;;50.10;45.90;;;;;;;16.35;100.00;102917.55;1972035;73;32974;-75
2021/09/02 02:41:11;;;;;;;50.07;45.87;;;;;;;16.29;100.00;102911.66;1955440;73;33020;-76
2021/09/02 02:46:37;;;;;;;49.73;45.37;;;;;;;16.33;100.00;102919.80;1972035;73;32898;-73
2021/09/02 02:52:01;;;;;;;49.93;45.70;;;;;;;16.39;100.00;102917.84;1972163;73;33523;-71
2021/09/02 02:57:25;;;;;;;51.27;46.87;;;;;;;16.34;100.00;102913.05;1971825;73;33413;-76
2021/09/02 03:02:50;;;;;;;51.53;47.47;;;;;;;16.23;100.00;102909.08;1972184;73;33396;-76
2021/09/02 03:08:14;;;;;;;52.37;48.43;;;;;;;16.32;100.00;102902.68;1972137;73;33407;-71
2021/09/02 03:13:39;;;;;;;51.93;47.50;;;;;;;16.32;100.00;102889.21;1972205;73;32327;-76
2021/09/02 03:19:03;;;;;;;50.80;46.70;;;;;;;16.26;100.00;102884.69;1971944;73;33153;-76
2021/09/02 03:24:28;;;;;;;50.97;46.37;;;;;;;16.25;100.00;102889.48;1971835;73;32948;-76
2021/09/02 03:29:52;;;;;;;52.07;47.80;;;;;;;16.32;100.00;102883.05;1972197;73;32895;-76
2021/09/02 03:35:16;;;;;;;54.40;49.77;;;;;;;16.40;100.00;102888.67;1971978;73;32912;-76
2021/09/02 03:40:41;;;;;;;51.30;47.20;;;;;;;16.37;100.00;102889.23;1972146;73;32958;-71
2021/09/02 03:46:06;;;;;;;50.70;46.40;;;;;;;16.40;100.00;102878.86;1972170;73;33464;-71
2021/09/02 03:51:30;;;;;;;53.43;49.00;;;;;;;16.39;100.00;102879.97;1972060;73;33475;-76
2021/09/02 03:56:55;;;;;;;53.37;48.93;;;;;;;16.34;100.00;102868.17;1972070;73;33487;-76
2021/09/02 04:02:19;;;;;;;52.50;47.87;;;;;;;16.40;100.00;102864.28;1869776;73;39604;-76
2021/09/02 04:07:44;;;;;;;50.87;46.67;;;;;;;16.37;100.00;102858.38;1972056;73;33001;-76
2021/09/02 04:13:09;;;;;;;51.00;46.60;;;;;;;16.36;100.00;102854.73;1972206;73;33396;-76
2021/09/02 04:18:34;;;;;;;50.30;46.17;;;;;;;16.32;100.00;102852.19;1971910;73;32891;-71
2021/09/02 04:23:58;;;;;;;51.67;47.43;;;;;;;16.34;100.00;102859.75;1971947;73;32954;-71
2021/09/02 04:29:23;;;;;;;52.73;48.33;;;;;;;16.32;100.00;102856.95;1971901;73;33006;-71
2021/09/02 04:34:47;;;;;;;51.57;47.00;;;;;;;16.39;100.00;102865.39;1971988;73;32894;-77
2021/09/02 04:40:13;;;;;;;52.27;47.80;;;;;;;16.37;100.00;102872.41;1972013;73;30960;-71
2021/09/02 04:45:39;;;;;;;52.10;47.90;;;;;;;16.37;100.00;102862.03;1972162;73;33469;-71
2021/09/02 04:51:09;;;;;;;52.63;48.27;;;;;;;16.42;100.00;102864.57;1972251;73;31537;-77
2021/09/02 04:56:34;;;;;;;51.80;47.70;;;;;;;16.40;100.00;102862.88;1972258;73;32896;-76
2021/09/02 05:02:05;;;;;;;51.17;47.10;;;;;;;16.36;100.00;102856.13;1972030;73;32886;-71
2021/09/02 05:07:29;;;;;;;51.53;47.37;;;;;;;16.34;100.00;102850.53;1938565;74;33060;-76
2021/09/02 05:12:54;;;;;;;52.20;48.27;;;;;;;16.39;100.00;102849.11;1971861;73;31029;-76
2021/09/02 05:18:19;;;;;;;50.80;46.67;;;;;;;16.38;100.00;102858.12;1971814;73;32998;-76
2021/09/02 05:23:44;;;;;;;51.23;47.23;;;;;;;16.34;100.00;102858.94;1971886;73;33005;-76
2021/09/02 05:29:08;;;;;;;51.23;46.93;;;;;;;16.33;100.00;102863.70;1972284;73;33448;-71
2021/09/02 05:34:35;;;;;;;49.23;45.50;;;;;;;16.38;100.00;102855.87;1972069;73;32931;-71
2021/09/02 05:40:01;;;;;;;51.17;47.30;;;;;;;16.39;100.00;102857.53;1972538;72;30958;-76
2021/09/02 05:45:26;;;;;;;50.23;46.33;;;;;;;16.38;100.00;102853.91;1972289;73;33534;-77
2021/09/02 05:50:52;;;;;;;47.77;44.20;;;;;;;16.42;100.00;102854.20;1972070;73;32926;-71
2021/09/02 05:56:16;;;;;;;47.57;44.07;;;;;;;16.36;100.00;102863.70;1972021;73;32910;-77
2021/09/02 06:01:43;;;;;;;48.43;44.93;;;;;;;16.34;100.00;102860.34;1971956;73;32918;-71
2021/09/02 06:07:08;;;;;;;48.30;44.70;;;;;;;16.42;100.00;102872.43;1971826;73;33005;-75
2021/09/02 06:12:33;;;;;;;49.33;45.70;;;;;;;16.33;100.00;102865.11;1971703;72;32975;-71
2021/09/02 06:17:57;;;;;;;49.37;45.43;;;;;;;16.33;100.00;102868.47;1971664;73;33016;-75
2021/09/02 06:23:23;;;;;;;47.80;43.90;;;;;;;16.32;100.00;102870.98;1972177;73;32985;-76
2021/09/02 06:28:47;;;;;;;50.37;46.33;;;;;;;16.38;100.00;102866.53;1971865;73;32981;-76
2021/09/02 06:34:12;;;;;;;48.33;44.97;;;;;;;16.35;100.00;102867.06;1971931;73;32986;-76
2021/09/02 06:39:37;;;;;;;48.20;44.87;;;;;;;16.30;100.00;102865.63;1971922;72;32917;-72
2021/09/02 06:45:02;;;;;;;47.93;44.43;;;;;;;16.39;100.00;102879.41;1971904;73;32973;-75
2021/09/02 06:50:28;;;;;;;46.90;43.80;;;;;;;16.34;100.00;102877.98;1971860;72;33098;-71
2021/09/02 06:55:53;;;;;;;46.67;43.33;;;;;;;16.41;100.00;102874.95;1971954;73;32919;-72
2021/09/02 07:01:17;;;;;;;46.27;43.00;;;;;;;16.38;100.00;102885.32;1971967;73;32913;-72
2021/09/02 07:06:42;;;;;;;45.33;42.13;;;;;;;16.42;100.00;102880.00;1972164;73;33550;-71
2021/09/02 07:12:07;;;;;;;46.87;43.30;;;;;;;16.51;100.00;102874.98;1972122;73;33572;-70
2021/09/02 07:17:32;;;;;;;47.07;43.80;;;;;;;16.41;100.00;102881.95;1971884;73;32928;-69
2021/09/02 07:22:57;;;;;;;46.27;43.03;;;;;;;16.69;100.00;102883.46;1865768;75;33730;-72
2021/09/02 07:28:20;;;;;;;47.23;44.13;;;;;;;16.53;100.00;102889.56;1971870;73;32925;-72
2021/09/02 07:33:45;;;;;;;46.20;43.17;;;;;;;16.57;100.00;102885.64;1972035;73;32908;-75
2021/09/02 07:39:11;;;;;;;45.10;41.70;;;;;;;16.57;100.00;102885.64;1971875;73;33042;-76
2021/09/02 07:44:35;;;;;;;46.63;43.50;;;;;;;16.57;100.00;102891.26;1972170;73;33494;-76
2021/09/02 07:50:01;;;;;;;44.17;41.40;;;;;;;16.66;100.00;102884.88;1972050;73;32918;-71
2021/09/02 07:55:25;;;;;;;46.27;42.87;;;;;;;16.70;100.00;102883.75;1971890;73;32905;-71
2021/09/02 08:00:50;;;;;;;45.73;42.67;;;;;;;16.66;100.00;102880.66;1971875;73;32923;-71
2021/09/02 08:06:14;;;;;;;45.47;42.57;;;;;;;16.80;100.00;102875.36;1972080;73;33005;-76
2021/09/02 08:11:39;;;;;;;43.30;40.30;;;;;;;16.86;100.00;102876.22;1972013;73;32907;-72
2021/09/02 08:17:04;;;;;;;43.13;40.43;;;;;;;17.03;100.00;102881.02;1971895;73;33079;-76
2021/09/02 08:22:29;;;;;;;40.87;38.30;;;;;;;17.06;100.00;102881.30;1971963;73;30965;-76
2021/09/02 08:27:54;;;;;;;41.63;38.63;;;;;;;17.12;100.00;102873.14;1972270;73;33031;-71
2021/09/02 08:33:20;;;;;;;40.83;38.03;;;;;;;17.17;100.00;102879.32;1971932;72;32987;-75
2021/09/02 08:38:48;;;;;;;41.63;38.73;;;;;;;17.23;100.00;102891.70;1971909;73;31039;-75
2021/09/02 08:44:14;;;;;;;40.37;37.77;;;;;;;17.34;100.00;102891.67;1971923;73;32994;-75
2021/09/02 08:49:40;;;;;;;40.27;37.67;;;;;;;17.29;100.00;102900.95;1972084;73;30956;-71
2021/09/02 08:55:06;;;;;;;39.73;36.97;;;;;;;17.41;100.00;102886.64;1971955;73;30957;-74
2021/09/02 09:00:32;;;;;;;39.70;36.83;;;;;;;17.51;100.00;102886.61;1971919;73;32914;-76
2021/09/02 09:06:04;;;;;;;40.07;37.30;;;;;;;17.54;100.00;102886.88;1971935;73;30964;-76
2021/09/02 09:11:31;;;;;;;41.53;38.57;;;;;;;17.52;100.00;102889.15;1971944;73;30972;-72
2021/09/02 09:17:02;;;;;;;39.20;36.60;;;;;;;17.48;100.00;102891.41;1972066;73;33517;-75
2021/09/02 09:22:36;;;;;;;40.07;37.23;;;;;;;17.69;100.00;102889.72;1971877;73;30994;-74
2021/09/02 09:28:01;;;;;;;39.17;36.77;;;;;;;17.71;100.00;102883.23;1971909;73;31024;-70
2021/09/02 09:33:27;;;;;;;40.10;37.20;;;;;;;17.69;100.00;102886.06;1971962;73;31028;-69
2021/09/02 09:39:03;;;;;;;39.80;37.13;;;;;;;17.69;100.00;102883.25;1972042;73;32897;-68
2021/09/02 09:44:31;;;;;;;38.93;36.23;;;;;;;17.89;100.00;102870.55;1972156;73;33503;-68
2021/09/02 09:50:12;;;;;;;37.97;35.43;;;;;;;18.02;100.00;102869.09;1971926;73;30941;-66
2021/09/02 09:55:37;;;;;;;38.17;35.67;;;;;;;18.10;100.00;102858.09;1971948;73;31038;-66
2021/09/02 10:01:04;;;;;;;37.90;35.43;;;;;;;18.44;100.00;102854.59;1972224;72;31564;-69
2021/09/02 10:06:30;;;;;;;36.20;33.90;;;;;;;18.51;100.00;102860.17;1972119;73;31033;-71
2021/09/02 10:11:57;;;;;;;37.50;34.87;;;;;;;18.53;100.00;102847.23;1971959;73;30941;-67
2021/09/02 10:17:22;;;;;;;35.30;32.83;;;;;;;18.48;100.00;102848.06;1971904;73;30928;-65
2021/09/02 10:22:49;;;;;;;35.97;33.67;;;;;;;18.55;100.00;102856.23;1972098;73;31006;-65
2021/09/02 10:28:34;;;;;;;39.03;36.43;;;;;;;18.71;100.00;102843.73;1972121;73;31033;-69
2021/09/02 10:34:00;;;;;;;38.50;35.73;;;;;;;18.87;100.00;102845.91;1971948;73;30961;-69
2021/09/02 10:39:49;;;;;;;35.47;33.37;;;;;;;19.10;100.00;102838.94;1972163;72;31418;-65
2021/09/02 10:45:39;;;;;;;37.43;34.87;;;;;;;18.84;100.00;102831.82;1972065;72;31033;-67
2021/09/02 10:51:32;;;;;;;36.30;33.87;;;;;;;18.62;100.00;102829.44;1971983;73;30973;-69
2021/09/02 10:57:08;;;;;;;36.00;33.60;;;;;;;18.75;100.00;102825.69;1971918;73;30925;-68
2021/09/02 11:02:44;;;;;;;34.70;32.60;;;;;;;19.07;100.00;102831.65;1972095;73;31054;-67
2021/09/02 11:08:12;;;;;;;34.03;31.97;;;;;;;19.26;100.00;102814.84;1972175;73;31000;-66
2021/09/02 11:13:37;;;;;;;34.73;32.20;;;;;;;19.25;100.00;102804.73;1972129;73;30945;-69
2021/09/02 11:19:05;;;;;;;33.40;30.97;;;;;;;19.26;100.00;102795.95;1971633;73;31032;-69
2021/09/02 11:24:31;;;;;;;33.40;31.40;;;;;;;19.26;100.00;102795.95;1971683;73;31036;-69
2021/09/02 11:30:17;;;;;;;32.47;30.47;;;;;;;19.64;100.00;102795.58;1971892;73;31492;-67
2021/09/02 11:35:56;;;;;;;32.20;30.40;;;;;;;19.63;100.00;102791.67;1971654;73;31005;-66
2021/09/02 11:41:22;;;;;;;32.07;30.07;;;;;;;19.60;100.00;102779.00;1971816;73;31477;-67
2021/09/02 11:47:10;;;;;;;30.83;28.83;;;;;;;19.58;100.00;102778.47;2016057;71;30952;-68
2021/09/02 11:52:45;;;;;;;33.50;31.50;;;;;;;19.67;100.00;102782.88;1971836;73;31073;-70
2021/09/02 11:58:15;;;;;;;31.90;30.10;;;;;;;19.61;100.00;102784.91;1971778;73;31036;-69
2021/09/02 12:03:40;;;;;;;30.37;28.67;;;;;;;19.46;100.00;102783.69;1971892;73;31002;-69
2021/09/02 12:09:06;;;;;;;31.37;29.57;;;;;;;19.52;100.00;102769.22;1971649;73;30940;-69
2021/09/02 12:14:34;;;;;;;31.70;29.87;;;;;;;19.61;100.00;102784.91;1971960;73;30932;-69
2021/09/02 12:20:03;;;;;;;31.23;29.30;;;;;;;19.70;100.00;102780.30;1971836;73;30923;-69
2021/09/02 12:25:48;;;;;;;30.20;28.40;;;;;;;19.78;100.00;102773.98;1971671;73;31052;-69
2021/09/02 12:31:22;;;;;;;29.87;28.27;;;;;;;19.85;100.00;102765.99;1971888;73;30980;-66
2021/09/02 12:37:02;;;;;;;31.43;29.63;;;;;;;19.82;100.00;102776.48;1971856;73;33423;-66
2021/09/02 12:42:30;;;;;;;30.03;28.23;;;;;;;19.70;100.00;102770.43;1971867;73;33425;-66
2021/09/02 12:48:04;;;;;;;29.77;28.00;;;;;;;19.83;100.00;102771.68;1971923;73;31385;-69
2021/09/02 12:53:31;;;;;;;28.10;26.37;;;;;;;19.83;100.00;102769.70;1971635;72;31072;-69
2021/09/02 12:59:13;;;;;;;27.07;25.67;;;;;;;19.67;100.00;102763.14;1971686;73;30989;-68
2021/09/02 13:04:38;;;;;;;27.80;26.20;;;;;;;19.86;100.00;102749.91;1971745;72;30929;-66
2021/09/02 13:10:03;;;;;;;30.80;29.30;;;;;;;19.99;100.00;102756.23;1971876;73;33396;-67
2021/09/02 13:15:29;;;;;;;31.23;29.53;;;;;;;19.90;100.00;102752.39;1971877;73;33349;-67
2021/09/02 13:20:54;;;;;;;29.20;27.73;;;;;;;19.90;100.00;102741.11;1968800;73;30935;-69
2021/09/02 13:26:19;;;;;;;29.73;28.33;;;;;;;19.82;100.00;102744.04;1971884;73;30920;-69
2021/09/02 13:31:43;;;;;;;32.50;30.90;;;;;;;19.94;100.00;102737.39;1971649;73;31031;-66
2021/09/02 13:37:16;;;;;;;31.60;29.90;;;;;;;19.89;100.00;102744.53;1971923;73;33487;-67
2021/09/02 13:42:41;;;;;;;30.07;28.57;;;;;;;20.00;100.00;102737.59;1971929;73;31077;-69
2021/09/02 13:48:08;;;;;;;29.33;27.83;;;;;;;19.83;100.00;102732.19;1971683;73;30925;-69
2021/09/02 13:53:33;;;;;;;30.77;29.07;;;;;;;19.80;100.00;102720.95;1971841;72;31457;-70
2021/09/02 13:58:57;;;;;;;30.70;29.27;;;;;;;19.88;100.00;102729.31;1971838;73;30947;-66
2021/09/02 14:04:22;;;;;;;30.50;28.80;;;;;;;19.97;100.00;102716.21;1971918;73;33426;-66
2021/09/02 14:09:47;;;;;;;32.30;30.40;;;;;;;19.87;100.00;102696.59;1971748;73;31026;-66
2021/09/02 14:15:13;;;;;;;32.07;30.50;;;;;;;19.80;100.00;102718.14;1971941;73;31087;-69
2021/09/02 14:20:45;;;;;;;30.70;29.07;;;;;;;19.68;100.00;102713.47;1970400;73;31432;-66
2021/09/02 14:26:10;;;;;;;30.27;28.40;;;;;;;19.84;100.00;102698.05;1971705;73;30945;-66
2021/09/02 14:31:34;;;;;;;28.30;26.70;;;;;;;19.98;100.00;102686.27;1971757;73;30925;-66
2021/09/02 14:37:00;;;;;;;28.10;26.60;;;;;;;20.21;100.00;102669.00;1971879;73;33376;-66
2021/09/02 14:42:26;;;;;;;27.63;26.03;;;;;;;20.11;100.00;102653.63;1971949;73;31486;-69
2021/09/02 14:47:56;;;;;;;28.60;26.70;;;;;;;19.91;100.00;102663.25;1971882;73;31066;-67
2021/09/02 14:53:22;;;;;;;27.07;25.50;;;;;;;19.86;100.00;102646.96;1971679;73;30933;-67
2021/09/02 14:58:46;;;;;;;28.23;26.57;;;;;;;19.92;100.00;102643.78;1971782;73;31023;-69
2021/09/02 15:04:12;;;;;;;30.43;28.50;;;;;;;20.01;100.00;102635.47;1971767;73;30944;-67
2021/09/02 15:09:38;;;;;;;27.83;26.07;;;;;;;20.01;100.00;102627.00;1971705;73;30926;-68
2021/09/02 15:15:05;;;;;;;28.13;26.50;;;;;;;19.72;100.00;102624.34;1971788;73;31025;-66
2021/09/02 15:20:31;;;;;;;27.10;25.20;;;;;;;19.73;100.00;102612.47;1971763;73;30940;-67
2021/09/02 15:25:54;;;;;;;28.63;26.70;;;;;;;20.21;100.00;102608.89;1971856;73;31936;-66
2021/09/02 15:31:19;;;;;;;27.60;25.90;;;;;;;20.17;100.00;102608.67;1971783;73;33399;-66
2021/09/02 15:36:45;;;;;;;28.43;26.47;;;;;;;20.00;100.00;102596.53;1971821;72;31007;-68
2021/09/02 15:42:10;;;;;;;27.67;25.80;;;;;;;19.98;100.00;102586.11;1971639;73;31020;-67
2021/09/02 15:47:35;;;;;;;26.63;24.83;;;;;;;20.19;100.00;102579.59;1972054;72;31553;-69
2021/09/02 15:53:01;;;;;;;28.80;26.80;;;;;;;19.89;100.00;102578.68;1972120;73;30969;-66
2021/09/02 15:58:27;;;;;;;28.57;26.60;;;;;;;19.89;100.00;102573.88;1971935;73;30962;-68
2021/09/02 16:03:52;;;;;;;29.37;27.57;;;;;;;19.95;100.00;102560.51;1972108;73;30936;-66
2021/09/02 16:09:25;;;;;;;27.40;25.60;;;;;;;19.97;100.00;102552.02;1972204;73;31525;-69
2021/09/02 16:14:51;;;;;;;27.10;25.47;;;;;;;20.19;100.00;102542.91;1972198;73;31434;-69
2021/09/02 16:20:16;;;;;;;26.90;24.90;;;;;;;20.17;100.00;102541.52;1972143;73;31443;-67
2021/09/02 16:25:41;;;;;;;26.93;25.17;;;;;;;20.13;100.00;102530.59;1971925;73;31021;-67
2021/09/02 16:31:06;;;;;;;28.43;26.57;;;;;;;20.07;100.00;102523.38;1971909;73;30993;-69
2021/09/02 16:36:30;;;;;;;27.10;25.30;;;;;;;20.07;100.00;102517.73;1972153;73;30969;-69
2021/09/02 16:39:02;;;;;;;28.10;26.20;;;;;;;19.98;100.00;102520.42;1934744;74;24190;-70
2021/09/02 16:44:27;;;;;;;26.63;24.93;;;;;;;19.99;100.00;102513.61;1971936;73;30934;-66
2021/09/02 16:49:54;;;;;;;27.57;25.77;;;;;;;20.05;100.00;102504.50;1972127;73;31519;-67
2021/09/02 16:55:19;;;;;;;27.07;25.37;;;;;;;20.05;100.00;102494.63;1972191;73;30938;-67
2021/09/02 17:00:46;;;;;;;28.00;26.00;;;;;;;19.93;100.00;102492.30;1972215;73;31583;-69
2021/09/02 17:03:20;;;;;;;28.07;26.17;;;;;;;19.85;100.00;102488.77;1934424;73;24640;31
2021/09/02 17:08:44;;;;;;;27.53;25.83;;;;;;;19.91;100.00;102489.77;1971943;73;30936;-72
2021/09/02 17:14:09;;;;;;;27.33;25.60;;;;;;;19.93;100.00;102474.80;1972148;73;31059;-72
2021/09/02 17:19:36;;;;;;;28.00;26.17;;;;;;;19.91;100.00;102471.44;1972136;73;33473;-72
2021/09/02 17:24:59;;;;;;;27.97;26.07;;;;;;;19.97;100.00;102467.97;1971927;73;31015;-72
2021/09/02 17:30:26;;;;;;;27.23;25.73;;;;;;;19.91;100.00;102463.55;1972153;73;31036;-71
2021/09/02 17:35:53;;;;;;;29.57;27.53;;;;;;;19.88;100.00;102467.84;1972180;73;31510;-72
2021/09/02 17:41:18;;;;;;;28.17;26.37;;;;;;;19.78;100.00;102463.77;1972112;73;31534;-71
2021/09/02 17:46:45;;;;;;;28.60;26.70;;;;;;;19.82;100.00;102459.76;1971991;73;30952;-72
2021/09/02 17:52:11;;;;;;;29.10;27.20;;;;;;;19.65;100.00;102453.28;1972210;73;33431;-71
2021/09/02 17:57:36;;;;;;;29.83;27.93;;;;;;;19.61;100.00;102451.38;1972272;73;31032;-71
2021/09/02 18:03:03;;;;;;;28.20;26.53;;;;;;;19.57;100.00;102442.70;1972016;73;30932;-71
2021/09/02 18:08:28;;;;;;;29.10;27.30;;;;;;;19.50;100.00;102451.57;1971948;73;30992;-71
2021/09/02 18:13:52;;;;;;;29.20;27.10;;;;;;;19.53;100.00;102445.88;1972175;73;30946;-71
2021/09/02 18:19:17;;;;;;;28.63;26.93;;;;;;;19.42;100.00;102445.75;1972133;73;33475;-72
2021/09/02 18:24:41;;;;;;;30.37;28.37;;;;;;;19.45;100.00;102437.55;1972299;73;31518;-73
2021/09/02 18:30:08;;;;;;;27.70;26.10;;;;;;;19.38;100.00;102432.83;1971978;73;30993;-71
2021/09/02 18:35:33;;;;;;;27.57;25.97;;;;;;;19.35;100.00;102441.90;1972024;73;30940;-71
2021/09/02 18:40:58;;;;;;;29.43;27.23;;;;;;;19.29;100.00;102444.55;1972001;73;31041;-72
2021/09/02 18:46:26;;;;;;;29.47;27.70;;;;;;;19.32;100.00;102449.56;1972001;73;30929;-71
2021/09/02 18:51:51;;;;;;;29.60;27.60;;;;;;;19.24;100.00;102452.23;1972085;72;30965;-71
2021/09/02 18:57:17;;;;;;;30.37;28.57;;;;;;;19.25;100.00;102455.33;1972259;72;31460;-72
2021/09/02 19:02:44;;;;;;;30.10;28.30;;;;;;;19.25;100.00;102460.39;1971959;73;31476;-72
2021/09/02 19:08:12;;;;;;;30.70;28.70;;;;;;;19.22;100.00;102472.25;1971968;73;30936;-72
2021/09/02 19:13:42;;;;;;;28.77;27.03;;;;;;;19.22;100.00;102484.09;1972172;72;31540;-72
2021/09/02 19:19:08;;;;;;;30.03;28.03;;;;;;;19.13;100.00;102479.70;1971947;73;30937;-73
2021/09/02 19:24:32;;;;;;;29.97;28.07;;;;;;;19.08;100.00;102484.02;1972236;72;31498;-73
2021/09/02 19:30:03;;;;;;;28.80;27.00;;;;;;;19.06;100.00;102490.52;1971971;73;30942;-76
2021/09/02 19:35:31;;;;;;;30.27;27.63;;;;;;;19.03;100.00;102487.75;1972270;73;31440;-75
2021/09/02 19:41:00;;;;;;;29.50;27.43;;;;;;;19.02;100.00;102494.52;1938687;74;31024;-77
2021/09/02 19:46:24;;;;;;;29.60;27.50;;;;;;;19.02;100.00;102490.29;1972203;73;31511;-77
2021/09/02 19:51:50;;;;;;;30.13;27.93;;;;;;;18.99;100.00;102500.77;1972123;73;31050;-80
2021/09/02 19:57:17;;;;;;;29.13;27.17;;;;;;;18.98;100.00;102493.45;1972234;73;33359;-80
2021/09/02 20:03:02;;;;;;;29.23;27.23;;;;;;;18.99;100.00;102497.95;1972171;73;31019;-75
2021/09/02 20:08:32;;;;;;;31.30;29.13;;;;;;;18.96;100.00;102506.98;1972124;73;31027;-77
2021/09/02 20:13:59;;;;;;;30.40;28.47;;;;;;;18.94;100.00;102500.83;1971995;73;30999;-76
2021/09/02 20:19:27;;;;;;;31.77;29.63;;;;;;;18.94;100.00;102502.80;1972109;73;30942;-76
2021/09/02 20:24:55;;;;;;;31.10;28.80;;;;;;;18.95;100.00;102505.89;1972228;72;33393;-78
2021/09/02 20:30:21;;;;;;;31.70;29.47;;;;;;;18.85;100.00;102498.41;1972189;73;30945;-79
2021/09/02 20:35:50;;;;;;;30.60;28.50;;;;;;;18.82;100.00;102499.58;1972264;72;30943;-73
2021/09/02 20:41:20;;;;;;;31.37;29.20;;;;;;;18.78;100.00;102497.94;1972289;73;31425;-81
2021/09/02 20:43:53;;;;;;;30.23;28.23;;;;;;;18.74;100.00;102503.88;1934617;74;24212;-80
2021/09/02 20:49:21;;;;;;;31.13;28.97;;;;;;;18.72;100.00;102489.27;1971968;73;30939;-75
2021/09/02 20:54:50;;;;;;;29.90;27.97;;;;;;;18.67;100.00;102486.52;1971911;73;31074;-75
2021/09/02 21:00:20;;;;;;;30.03;27.83;;;;;;;18.66;100.00;102494.69;1972294;73;31013;-80
2021/09/02 21:05:57;;;;;;;30.83;28.60;;;;;;;18.61;100.00;102491.95;1972307;72;31457;-76
2021/09/02 21:11:26;;;;;;;31.53;29.17;;;;;;;18.60;100.00;102498.16;1972237;73;31439;-79
2021/09/02 21:16:54;;;;;;;30.80;28.27;;;;;;;18.59;100.00;102497.87;1972110;72;33382;-78
2021/09/02 21:22:26;;;;;;;31.33;29.03;;;;;;;18.56;100.00;102499.89;1972169;73;31516;-75
2021/09/02 21:28:06;;;;;;;30.53;28.40;;;;;;;18.55;100.00;102501.59;1972048;72;30929;-75
2021/09/02 21:36:28;;;;;;;29.97;27.97;;;;;;;18.46;100.00;102504.19;2061461;69;33100;-79
2021/09/02 21:39:02;;;;;;;31.23;28.93;;;;;;;18.39;100.00;102505.68;2030947;71;24637;-79
2021/09/02 21:41:33;;;;;;;30.90;28.97;;;;;;;18.44;100.00;102513.48;2030744;71;24124;-81
2021/09/02 21:44:07;;;;;;;32.80;30.27;;;;;;;18.43;100.00;102513.23;2030768;71;24186;-81
2021/09/02 21:46:42;;;;;;;30.93;28.63;;;;;;;18.40;100.00;102504.55;2030766;71;24117;-79
2021/09/02 21:49:13;;;;;;;31.70;29.40;;;;;;;18.38;100.00;102506.81;2030855;71;24182;-78
2021/09/02 21:51:44;;;;;;;32.30;29.93;;;;;;;18.32;100.00;102507.42;2030723;71;24113;-80
2021/09/02 21:54:17;;;;;;;31.90;29.60;;;;;;;18.29;100.00;102502.40;2030759;71;24178;-81
2021/09/02 21:56:49;;;;;;;32.13;29.83;;;;;;;18.32;100.00;102502.36;2030709;70;24101;-75
2021/09/02 21:59:22;;;;;;;31.03;28.63;;;;;;;18.40;100.00;102505.96;2030867;70;24573;-81
2021/09/02 22:01:54;;;;;;;32.67;30.07;;;;;;;18.39;100.00;102503.71;1950859;73;24151;-82
2021/09/02 22:04:27;;;;;;;31.93;29.83;;;;;;;18.34;100.00;102509.39;1950729;73;24182;-78
2021/09/02 22:06:58;;;;;;;32.37;30.00;;;;;;;18.34;100.00;102498.13;2030726;71;24760;-81
2021/09/02 22:09:29;;;;;;;32.93;30.37;;;;;;;18.31;100.00;102500.14;2030675;70;24140;-80
2021/09/02 22:12:03;;;;;;;31.53;29.23;;;;;;;18.35;100.00;102506.01;2030670;71;26620;-80
2021/09/02 22:14:36;;;;;;;33.33;31.03;;;;;;;18.38;100.00;102511.03;2030703;70;24128;-80
2021/09/02 22:17:10;;;;;;;35.17;32.50;;;;;;;18.35;100.00;102506.01;2030684;70;24089;-79
2021/09/02 22:19:45;;;;;;;34.77;32.03;;;;;;;18.27;100.00;102512.28;2030791;71;24089;-78
2021/09/02 22:25:11;;;;;;;35.27;32.53;;;;;;;18.26;100.00;102500.19;1972246;73;30936;-77
2021/09/02 22:30:40;;;;;;;35.47;32.57;;;;;;;18.24;100.00;102492.59;1972187;73;33372;-79
2021/09/02 22:36:08;;;;;;;34.80;32.30;;;;;;;18.23;100.00;102492.32;1971975;73;30957;-77
2021/09/02 22:41:35;;;;;;;35.23;32.87;;;;;;;18.21;100.00;102498.83;1971941;73;30931;-77
2021/09/02 22:47:02;;;;;;;35.10;32.60;;;;;;;18.22;100.00;102485.04;1972145;73;32946;-80
2021/09/02 22:52:28;;;;;;;34.20;31.60;;;;;;;18.13;100.00;102490.47;1972054;73;30938;-79
2021/09/02 22:57:56;;;;;;;36.13;33.23;;;;;;;18.03;100.00;102485.50;1972037;73;30953;-80
2021/09/02 23:03:21;;;;;;;34.93;32.33;;;;;;;18.02;100.00;102481.84;1972032;73;30930;-79
2021/09/02 23:08:52;;;;;;;34.53;31.90;;;;;;;17.95;100.00;102482.77;1972235;73;30920;-78
2021/09/02 23:11:27;;;;;;;34.43;31.77;;;;;;;17.94;100.00;102479.67;1934594;74;24109;-80
2021/09/02 23:16:57;;;;;;;32.90;30.60;;;;;;;17.96;100.00;102476.58;1971966;73;31032;-79
2021/09/02 23:22:24;;;;;;;33.70;30.93;;;;;;;18.00;100.00;102470.63;1972170;73;31067;-77
2021/09/02 23:27:54;;;;;;;32.27;29.83;;;;;;;17.96;100.00;102463.36;1972016;73;30972;-77
2021/09/02 23:33:23;;;;;;;32.77;30.17;;;;;;;17.84;100.00;102455.86;1972290;73;31077;-79